sensor_id;sensor_type;location;lat;lon;timestamp;P1;durP1;ratioP1;P2;durP2;ratioP2
29200;SDS011;16244;51.956;12.980;2023-02-15T00:00:18;23.20;;;14.17;;
29200;SDS011;16244;51.956;12.980;2023-02-15T00:02:45;22.43;;;14.10;;
29200;SDS011;16244;51.956;12.980;2023-02-15T00:05:13;20.13;;;12.90;;
29200;SDS011;16244;51.956;12.980;2023-02-15T00:07:40;24.00;;;14.03;;
29200;SDS011;16244;51.956;12.980;2023-02-15T00:10:07;20.67;;;12.43;;
29200;SDS011;16244;51.956;12.980;2023-02-15T00:12:38;24.30;;;13.83;;
29200;SDS011;16244;51.956;12.980;2023-02-15T00:15:06;24.40;;;13.40;;
29200;SDS011;16244;51.956;12.980;2023-02-15T00:17:33;25.50;;;13.43;;
29200;SDS011;16244;51.956;12.980;2023-02-15T00:20:00;27.00;;;14.43;;
29200;SDS011;16244;51.956;12.980;2023-02-15T00:22:28;26.17;;;13.33;;
29200;SDS011;16244;51.956;12.980;2023-02-15T00:24:55;22.30;;;12.83;;
29200;SDS011;16244;51.956;12.980;2023-02-15T00:27:22;31.60;;;14.60;;
29200;SDS011;16244;51.956;12.980;2023-02-15T00:29:51;120.77;;;15.60;;
29200;SDS011;16244;51.956;12.980;2023-02-15T00:32:18;55.37;;;15.17;;
29200;SDS011;16244;51.956;12.980;2023-02-15T00:34:45;24.20;;;14.47;;
29200;SDS011;16244;51.956;12.980;2023-02-15T00:37:12;24.73;;;14.10;;
29200;SDS011;16244;51.956;12.980;2023-02-15T00:39:40;25.43;;;14.00;;
29200;SDS011;16244;51.956;12.980;2023-02-15T00:42:07;33.50;;;15.30;;
29200;SDS011;16244;51.956;12.980;2023-02-15T00:44:34;30.90;;;15.63;;
29200;SDS011;16244;51.956;12.980;2023-02-15T00:47:02;38.77;;;17.07;;
29200;SDS011;16244;51.956;12.980;2023-02-15T00:49:30;70.80;;;15.40;;
29200;SDS011;16244;51.956;12.980;2023-02-15T00:51:57;63.07;;;18.57;;
29200;SDS011;16244;51.956;12.980;2023-02-15T00:54:25;37.93;;;15.70;;
29200;SDS011;16244;51.956;12.980;2023-02-15T00:56:52;36.10;;;16.97;;
29200;SDS011;16244;51.956;12.980;2023-02-15T00:59:19;47.20;;;16.30;;
29200;SDS011;16244;51.956;12.980;2023-02-15T01:01:46;35.03;;;14.10;;
29200;SDS011;16244;51.956;12.980;2023-02-15T01:04:15;33.70;;;14.70;;
29200;SDS011;16244;51.956;12.980;2023-02-15T01:06:42;25.80;;;14.40;;
29200;SDS011;16244;51.956;12.980;2023-02-15T01:09:09;21.93;;;13.10;;
29200;SDS011;16244;51.956;12.980;2023-02-15T01:11:38;25.83;;;13.83;;
29200;SDS011;16244;51.956;12.980;2023-02-15T01:14:05;51.57;;;13.97;;
29200;SDS011;16244;51.956;12.980;2023-02-15T01:16:32;61.50;;;14.50;;
29200;SDS011;16244;51.956;12.980;2023-02-15T01:18:59;61.80;;;12.70;;
29200;SDS011;16244;51.956;12.980;2023-02-15T01:21:29;57.40;;;19.47;;
29200;SDS011;16244;51.956;12.980;2023-02-15T01:23:59;50.13;;;19.57;;
29200;SDS011;16244;51.956;12.980;2023-02-15T01:26:27;78.97;;;16.07;;
29200;SDS011;16244;51.956;12.980;2023-02-15T01:28:54;90.30;;;15.97;;
29200;SDS011;16244;51.956;12.980;2023-02-15T01:31:22;83.97;;;18.33;;
29200;SDS011;16244;51.956;12.980;2023-02-15T01:33:49;68.67;;;17.73;;
29200;SDS011;16244;51.956;12.980;2023-02-15T01:36:16;77.33;;;13.57;;
29200;SDS011;16244;51.956;12.980;2023-02-15T01:38:45;47.67;;;12.40;;
29200;SDS011;16244;51.956;12.980;2023-02-15T01:41:12;167.53;;;16.03;;
29200;SDS011;16244;51.956;12.980;2023-02-15T01:43:50;129.00;;;16.73;;
29200;SDS011;16244;51.956;12.980;2023-02-15T01:46:19;126.13;;;14.80;;
29200;SDS011;16244;51.956;12.980;2023-02-15T01:48:51;31.63;;;17.10;;
29200;SDS011;16244;51.956;12.980;2023-02-15T01:51:23;41.37;;;16.30;;
29200;SDS011;16244;51.956;12.980;2023-02-15T01:53:55;110.30;;;15.83;;
29200;SDS011;16244;51.956;12.980;2023-02-15T01:56:27;55.77;;;14.17;;
29200;SDS011;16244;51.956;12.980;2023-02-15T01:58:58;37.83;;;14.20;;
29200;SDS011;16244;51.956;12.980;2023-02-15T02:01:30;44.53;;;15.00;;
29200;SDS011;16244;51.956;12.980;2023-02-15T02:03:58;63.00;;;14.80;;
29200;SDS011;16244;51.956;12.980;2023-02-15T02:06:32;50.00;;;13.63;;
29200;SDS011;16244;51.956;12.980;2023-02-15T02:09:03;31.03;;;14.17;;
29200;SDS011;16244;51.956;12.980;2023-02-15T02:11:31;31.43;;;13.20;;
29200;SDS011;16244;51.956;12.980;2023-02-15T02:13:58;36.80;;;14.23;;
29200;SDS011;16244;51.956;12.980;2023-02-15T02:16:27;58.10;;;15.23;;
29200;SDS011;16244;51.956;12.980;2023-02-15T02:19:05;113.30;;;16.43;;
29200;SDS011;16244;51.956;12.980;2023-02-15T02:24:57;81.87;;;15.63;;
29200;SDS011;16244;51.956;12.980;2023-02-15T02:27:39;88.47;;;14.83;;
29200;SDS011;16244;51.956;12.980;2023-02-15T02:30:14;130.80;;;15.20;;
29200;SDS011;16244;51.956;12.980;2023-02-15T02:33:15;134.07;;;15.10;;
29200;SDS011;16244;51.956;12.980;2023-02-15T02:35:52;69.17;;;14.87;;
29200;SDS011;16244;51.956;12.980;2023-02-15T02:38:28;91.73;;;12.70;;
29200;SDS011;16244;51.956;12.980;2023-02-15T02:41:06;129.03;;;13.53;;
29200;SDS011;16244;51.956;12.980;2023-02-15T02:43:42;87.20;;;13.70;;
29200;SDS011;16244;51.956;12.980;2023-02-15T02:46:15;133.23;;;13.17;;
29200;SDS011;16244;51.956;12.980;2023-02-15T02:48:48;152.33;;;13.20;;
29200;SDS011;16244;51.956;12.980;2023-02-15T02:51:16;70.80;;;13.33;;
29200;SDS011;16244;51.956;12.980;2023-02-15T02:53:47;78.73;;;12.70;;
29200;SDS011;16244;51.956;12.980;2023-02-15T02:56:19;100.23;;;12.97;;
29200;SDS011;16244;51.956;12.980;2023-02-15T02:58:51;125.20;;;14.47;;
29200;SDS011;16244;51.956;12.980;2023-02-15T03:01:24;58.33;;;12.67;;
29200;SDS011;16244;51.956;12.980;2023-02-15T03:03:58;66.67;;;12.03;;
29200;SDS011;16244;51.956;12.980;2023-02-15T03:06:30;81.43;;;12.10;;
29200;SDS011;16244;51.956;12.980;2023-02-15T03:09:06;80.03;;;12.37;;
29200;SDS011;16244;51.956;12.980;2023-02-15T03:11:40;73.80;;;13.40;;
29200;SDS011;16244;51.956;12.980;2023-02-15T03:14:09;98.30;;;13.83;;
29200;SDS011;16244;51.956;12.980;2023-02-15T03:16:38;125.90;;;14.20;;
29200;SDS011;16244;51.956;12.980;2023-02-15T03:19:09;129.87;;;14.57;;
29200;SDS011;16244;51.956;12.980;2023-02-15T03:21:42;175.97;;;14.83;;
29200;SDS011;16244;51.956;12.980;2023-02-15T03:24:15;139.63;;;14.60;;
29200;SDS011;16244;51.956;12.980;2023-02-15T03:26:46;116.43;;;13.17;;
29200;SDS011;16244;51.956;12.980;2023-02-15T03:29:17;127.33;;;14.07;;
29200;SDS011;16244;51.956;12.980;2023-02-15T03:31:47;116.23;;;14.23;;
29200;SDS011;16244;51.956;12.980;2023-02-15T03:34:19;100.40;;;13.77;;
29200;SDS011;16244;51.956;12.980;2023-02-15T03:36:47;69.63;;;14.10;;
29200;SDS011;16244;51.956;12.980;2023-02-15T03:39:20;45.80;;;13.10;;
29200;SDS011;16244;51.956;12.980;2023-02-15T03:41:54;72.50;;;14.30;;
29200;SDS011;16244;51.956;12.980;2023-02-15T03:44:26;112.40;;;14.70;;
29200;SDS011;16244;51.956;12.980;2023-02-15T03:46:58;92.63;;;13.33;;
29200;SDS011;16244;51.956;12.980;2023-02-15T03:49:34;72.93;;;12.47;;
29200;SDS011;16244;51.956;12.980;2023-02-15T03:52:05;81.40;;;12.30;;
29200;SDS011;16244;51.956;12.980;2023-02-15T03:54:34;78.93;;;14.60;;
29200;SDS011;16244;51.956;12.980;2023-02-15T03:57:10;58.80;;;14.17;;
29200;SDS011;16244;51.956;12.980;2023-02-15T03:59:57;126.40;;;15.30;;
29200;SDS011;16244;51.956;12.980;2023-02-15T04:02:47;68.60;;;14.97;;
29200;SDS011;16244;51.956;12.980;2023-02-15T04:05:27;77.33;;;14.20;;
29200;SDS011;16244;51.956;12.980;2023-02-15T04:07:54;79.67;;;15.93;;
29200;SDS011;16244;51.956;12.980;2023-02-15T04:10:21;95.03;;;15.27;;
29200;SDS011;16244;51.956;12.980;2023-02-15T04:13:06;48.07;;;14.87;;
29200;SDS011;16244;51.956;12.980;2023-02-15T04:15:33;42.80;;;15.57;;
29200;SDS011;16244;51.956;12.980;2023-02-15T04:18:18;31.87;;;15.10;;
29200;SDS011;16244;51.956;12.980;2023-02-15T04:20:46;46.37;;;17.37;;
29200;SDS011;16244;51.956;12.980;2023-02-15T04:23:31;96.40;;;17.70;;
29200;SDS011;16244;51.956;12.980;2023-02-15T04:26:16;42.30;;;16.17;;
29200;SDS011;16244;51.956;12.980;2023-02-15T04:28:43;60.53;;;18.90;;
29200;SDS011;16244;51.956;12.980;2023-02-15T04:31:10;64.43;;;17.00;;
29200;SDS011;16244;51.956;12.980;2023-02-15T04:33:38;64.03;;;18.47;;
29200;SDS011;16244;51.956;12.980;2023-02-15T04:36:06;48.63;;;15.50;;
29200;SDS011;16244;51.956;12.980;2023-02-15T04:38:34;45.90;;;16.70;;
29200;SDS011;16244;51.956;12.980;2023-02-15T04:41:01;30.00;;;17.03;;
29200;SDS011;16244;51.956;12.980;2023-02-15T04:43:28;31.03;;;18.13;;
29200;SDS011;16244;51.956;12.980;2023-02-15T04:45:55;40.13;;;16.33;;
29200;SDS011;16244;51.956;12.980;2023-02-15T04:48:24;39.10;;;18.43;;
29200;SDS011;16244;51.956;12.980;2023-02-15T04:50:51;43.80;;;18.23;;
29200;SDS011;16244;51.956;12.980;2023-02-15T04:53:19;44.83;;;19.77;;
29200;SDS011;16244;51.956;12.980;2023-02-15T04:55:46;50.17;;;20.60;;
29200;SDS011;16244;51.956;12.980;2023-02-15T04:58:14;54.70;;;21.10;;
29200;SDS011;16244;51.956;12.980;2023-02-15T05:00:41;43.80;;;19.27;;
29200;SDS011;16244;51.956;12.980;2023-02-15T05:03:08;54.10;;;21.00;;
29200;SDS011;16244;51.956;12.980;2023-02-15T05:05:35;45.37;;;20.20;;
29200;SDS011;16244;51.956;12.980;2023-02-15T05:08:02;46.97;;;19.33;;
29200;SDS011;16244;51.956;12.980;2023-02-15T05:10:31;54.93;;;23.07;;
29200;SDS011;16244;51.956;12.980;2023-02-15T05:12:58;52.23;;;21.70;;
29200;SDS011;16244;51.956;12.980;2023-02-15T05:15:25;49.60;;;21.80;;
29200;SDS011;16244;51.956;12.980;2023-02-15T05:17:52;51.63;;;22.50;;
29200;SDS011;16244;51.956;12.980;2023-02-15T05:20:19;56.50;;;22.97;;
29200;SDS011;16244;51.956;12.980;2023-02-15T05:22:47;70.07;;;22.50;;
29200;SDS011;16244;51.956;12.980;2023-02-15T05:25:14;82.50;;;23.57;;
29200;SDS011;16244;51.956;12.980;2023-02-15T05:28:00;63.27;;;22.57;;
29200;SDS011;16244;51.956;12.980;2023-02-15T05:30:44;78.63;;;24.67;;
29200;SDS011;16244;51.956;12.980;2023-02-15T05:33:12;59.63;;;24.53;;
29200;SDS011;16244;51.956;12.980;2023-02-15T05:35:39;62.93;;;23.70;;
29200;SDS011;16244;51.956;12.980;2023-02-15T05:38:06;58.47;;;24.57;;
29200;SDS011;16244;51.956;12.980;2023-02-15T05:40:33;71.23;;;25.30;;
29200;SDS011;16244;51.956;12.980;2023-02-15T05:43:02;90.57;;;26.70;;
29200;SDS011;16244;51.956;12.980;2023-02-15T05:45:29;78.77;;;24.30;;
29200;SDS011;16244;51.956;12.980;2023-02-15T05:47:56;61.23;;;26.17;;
29200;SDS011;16244;51.956;12.980;2023-02-15T05:50:24;53.33;;;22.87;;
29200;SDS011;16244;51.956;12.980;2023-02-15T05:52:52;55.73;;;24.03;;
29200;SDS011;16244;51.956;12.980;2023-02-15T05:55:19;62.67;;;25.00;;
29200;SDS011;16244;51.956;12.980;2023-02-15T05:57:46;53.60;;;23.33;;
29200;SDS011;16244;51.956;12.980;2023-02-15T06:00:17;56.50;;;23.80;;
29200;SDS011;16244;51.956;12.980;2023-02-15T06:02:44;53.33;;;22.07;;
29200;SDS011;16244;51.956;12.980;2023-02-15T06:05:11;43.20;;;21.73;;
29200;SDS011;16244;51.956;12.980;2023-02-15T06:07:38;52.10;;;22.03;;
29200;SDS011;16244;51.956;12.980;2023-02-15T06:10:06;48.10;;;21.57;;
29200;SDS011;16244;51.956;12.980;2023-02-15T06:12:33;53.30;;;20.50;;
29200;SDS011;16244;51.956;12.980;2023-02-15T06:15:00;51.43;;;22.17;;
29200;SDS011;16244;51.956;12.980;2023-02-15T06:17:29;49.17;;;20.00;;
29200;SDS011;16244;51.956;12.980;2023-02-15T06:19:56;55.30;;;20.60;;
29200;SDS011;16244;51.956;12.980;2023-02-15T06:22:23;50.43;;;21.10;;
29200;SDS011;16244;51.956;12.980;2023-02-15T06:24:50;46.33;;;19.13;;
29200;SDS011;16244;51.956;12.980;2023-02-15T06:27:17;50.70;;;21.63;;
29200;SDS011;16244;51.956;12.980;2023-02-15T06:29:44;45.23;;;19.70;;
29200;SDS011;16244;51.956;12.980;2023-02-15T06:32:12;45.10;;;20.70;;
29200;SDS011;16244;51.956;12.980;2023-02-15T06:34:40;35.77;;;17.27;;
29200;SDS011;16244;51.956;12.980;2023-02-15T06:37:07;40.57;;;20.87;;
29200;SDS011;16244;51.956;12.980;2023-02-15T06:39:34;30.50;;;17.80;;
29200;SDS011;16244;51.956;12.980;2023-02-15T06:42:01;38.17;;;17.83;;
29200;SDS011;16244;51.956;12.980;2023-02-15T06:44:29;31.73;;;16.10;;
29200;SDS011;16244;51.956;12.980;2023-02-15T06:46:56;30.00;;;17.20;;
29200;SDS011;16244;51.956;12.980;2023-02-15T06:49:23;32.40;;;17.80;;
29200;SDS011;16244;51.956;12.980;2023-02-15T06:51:51;30.87;;;17.20;;
29200;SDS011;16244;51.956;12.980;2023-02-15T06:54:18;36.03;;;17.40;;
29200;SDS011;16244;51.956;12.980;2023-02-15T06:56:46;35.40;;;18.87;;
29200;SDS011;16244;51.956;12.980;2023-02-15T06:59:12;32.83;;;17.80;;
29200;SDS011;16244;51.956;12.980;2023-02-15T07:01:39;33.80;;;15.60;;
29200;SDS011;16244;51.956;12.980;2023-02-15T07:04:05;37.13;;;17.33;;
29200;SDS011;16244;51.956;12.980;2023-02-15T07:06:32;31.80;;;17.57;;
29200;SDS011;16244;51.956;12.980;2023-02-15T07:09:01;35.37;;;17.50;;
29200;SDS011;16244;51.956;12.980;2023-02-15T07:11:29;30.27;;;17.13;;
29200;SDS011;16244;51.956;12.980;2023-02-15T07:14:13;35.77;;;17.97;;
29200;SDS011;16244;51.956;12.980;2023-02-15T07:16:39;30.80;;;17.70;;
29200;SDS011;16244;51.956;12.980;2023-02-15T07:19:06;36.10;;;17.43;;
29200;SDS011;16244;51.956;12.980;2023-02-15T07:21:33;33.87;;;18.60;;
29200;SDS011;16244;51.956;12.980;2023-02-15T07:23:59;30.63;;;17.20;;
29200;SDS011;16244;51.956;12.980;2023-02-15T07:26:28;30.60;;;17.03;;
29200;SDS011;16244;51.956;12.980;2023-02-15T07:31:29;30.43;;;17.60;;
29200;SDS011;16244;51.956;12.980;2023-02-15T07:33:57;30.80;;;17.00;;
29200;SDS011;16244;51.956;12.980;2023-02-15T07:36:29;28.17;;;17.23;;
29200;SDS011;16244;51.956;12.980;2023-02-15T07:38:56;29.17;;;16.70;;
29200;SDS011;16244;51.956;12.980;2023-02-15T07:41:29;27.33;;;17.00;;
29200;SDS011;16244;51.956;12.980;2023-02-15T07:43:56;26.07;;;15.50;;
29200;SDS011;16244;51.956;12.980;2023-02-15T07:46:23;28.37;;;16.57;;
29200;SDS011;16244;51.956;12.980;2023-02-15T07:48:52;25.70;;;15.80;;
29200;SDS011;16244;51.956;12.980;2023-02-15T07:51:20;21.70;;;14.57;;
29200;SDS011;16244;51.956;12.980;2023-02-15T07:53:47;23.93;;;15.43;;
29200;SDS011;16244;51.956;12.980;2023-02-15T07:56:17;32.37;;;15.50;;
29200;SDS011;16244;51.956;12.980;2023-02-15T07:58:44;24.53;;;15.90;;
29200;SDS011;16244;51.956;12.980;2023-02-15T08:01:18;46.53;;;25.30;;
29200;SDS011;16244;51.956;12.980;2023-02-15T08:03:46;33.27;;;19.00;;
29200;SDS011;16244;51.956;12.980;2023-02-15T08:06:15;25.50;;;16.43;;
29200;SDS011;16244;51.956;12.980;2023-02-15T08:08:43;25.73;;;16.70;;
29200;SDS011;16244;51.956;12.980;2023-02-15T08:11:15;28.50;;;17.13;;
29200;SDS011;16244;51.956;12.980;2023-02-15T08:13:55;26.93;;;15.53;;
29200;SDS011;16244;51.956;12.980;2023-02-15T08:16:25;25.07;;;15.47;;
29200;SDS011;16244;51.956;12.980;2023-02-15T08:18:56;25.20;;;16.03;;
29200;SDS011;16244;51.956;12.980;2023-02-15T08:21:27;24.43;;;14.80;;
29200;SDS011;16244;51.956;12.980;2023-02-15T08:23:55;20.73;;;14.83;;
29200;SDS011;16244;51.956;12.980;2023-02-15T08:26:23;21.77;;;14.90;;
29200;SDS011;16244;51.956;12.980;2023-02-15T08:28:52;19.43;;;13.57;;
29200;SDS011;16244;51.956;12.980;2023-02-15T08:31:20;19.97;;;13.90;;
29200;SDS011;16244;51.956;12.980;2023-02-15T08:33:48;20.20;;;14.07;;
29200;SDS011;16244;51.956;12.980;2023-02-15T08:36:17;19.33;;;13.47;;
29200;SDS011;16244;51.956;12.980;2023-02-15T08:38:47;21.93;;;13.43;;
29200;SDS011;16244;51.956;12.980;2023-02-15T08:41:16;20.77;;;13.93;;
29200;SDS011;16244;51.956;12.980;2023-02-15T08:43:46;20.33;;;13.20;;
29200;SDS011;16244;51.956;12.980;2023-02-15T08:46:15;16.70;;;12.13;;
29200;SDS011;16244;51.956;12.980;2023-02-15T08:48:43;20.03;;;14.00;;
29200;SDS011;16244;51.956;12.980;2023-02-15T08:51:12;23.37;;;14.70;;
29200;SDS011;16244;51.956;12.980;2023-02-15T08:53:41;16.17;;;12.30;;
29200;SDS011;16244;51.956;12.980;2023-02-15T08:56:12;15.30;;;11.43;;
29200;SDS011;16244;51.956;12.980;2023-02-15T08:58:39;14.73;;;11.57;;
29200;SDS011;16244;51.956;12.980;2023-02-15T09:01:10;18.67;;;14.00;;
29200;SDS011;16244;51.956;12.980;2023-02-15T09:03:38;23.80;;;16.63;;
29200;SDS011;16244;51.956;12.980;2023-02-15T09:06:06;29.13;;;20.93;;
29200;SDS011;16244;51.956;12.980;2023-02-15T09:08:34;17.00;;;13.60;;
29200;SDS011;16244;51.956;12.980;2023-02-15T09:11:05;15.27;;;12.10;;
29200;SDS011;16244;51.956;12.980;2023-02-15T09:13:36;11.87;;;10.63;;
29200;SDS011;16244;51.956;12.980;2023-02-15T09:16:04;14.07;;;10.87;;
29200;SDS011;16244;51.956;12.980;2023-02-15T09:18:34;15.27;;;10.53;;
29200;SDS011;16244;51.956;12.980;2023-02-15T09:21:03;12.67;;;10.33;;
29200;SDS011;16244;51.956;12.980;2023-02-15T09:23:32;12.67;;;11.10;;
29200;SDS011;16244;51.956;12.980;2023-02-15T09:26:03;18.47;;;13.20;;
29200;SDS011;16244;51.956;12.980;2023-02-15T09:28:32;13.00;;;10.67;;
29200;SDS011;16244;51.956;12.980;2023-02-15T09:31:05;13.80;;;11.10;;
29200;SDS011;16244;51.956;12.980;2023-02-15T09:33:34;13.57;;;11.23;;
29200;SDS011;16244;51.956;12.980;2023-02-15T09:36:03;11.37;;;10.03;;
29200;SDS011;16244;51.956;12.980;2023-02-15T09:38:31;12.80;;;9.80;;
29200;SDS011;16244;51.956;12.980;2023-02-15T09:41:03;14.10;;;9.70;;
29200;SDS011;16244;51.956;12.980;2023-02-15T09:43:42;18.40;;;13.03;;
29200;SDS011;16244;51.956;12.980;2023-02-15T09:46:22;12.67;;;9.73;;
29200;SDS011;16244;51.956;12.980;2023-02-15T09:49:04;11.83;;;9.40;;
29200;SDS011;16244;51.956;12.980;2023-02-15T09:51:54;11.17;;;8.87;;
29200;SDS011;16244;51.956;12.980;2023-02-15T09:54:38;10.47;;;9.37;;
29200;SDS011;16244;51.956;12.980;2023-02-15T09:57:18;10.77;;;9.40;;
29200;SDS011;16244;51.956;12.980;2023-02-15T09:59:56;10.63;;;9.47;;
29200;SDS011;16244;51.956;12.980;2023-02-15T10:02:37;11.27;;;9.37;;
29200;SDS011;16244;51.956;12.980;2023-02-15T10:05:19;9.30;;;8.40;;
29200;SDS011;16244;51.956;12.980;2023-02-15T10:08:01;9.77;;;8.80;;
29200;SDS011;16244;51.956;12.980;2023-02-15T10:10:48;9.70;;;8.70;;
29200;SDS011;16244;51.956;12.980;2023-02-15T10:13:44;10.93;;;8.50;;
29200;SDS011;16244;51.956;12.980;2023-02-15T10:16:22;9.27;;;8.30;;
29200;SDS011;16244;51.956;12.980;2023-02-15T10:18:57;9.40;;;8.27;;
29200;SDS011;16244;51.956;12.980;2023-02-15T10:21:35;8.97;;;8.03;;
29200;SDS011;16244;51.956;12.980;2023-02-15T10:24:17;9.50;;;8.50;;
29200;SDS011;16244;51.956;12.980;2023-02-15T10:27:04;9.00;;;7.80;;
29200;SDS011;16244;51.956;12.980;2023-02-15T10:29:38;9.30;;;8.30;;
29200;SDS011;16244;51.956;12.980;2023-02-15T10:32:13;8.63;;;7.83;;
29200;SDS011;16244;51.956;12.980;2023-02-15T10:34:51;8.57;;;7.63;;
29200;SDS011;16244;51.956;12.980;2023-02-15T10:37:36;11.60;;;8.80;;
29200;SDS011;16244;51.956;12.980;2023-02-15T10:40:14;8.63;;;7.77;;
29200;SDS011;16244;51.956;12.980;2023-02-15T10:42:53;8.50;;;7.60;;
29200;SDS011;16244;51.956;12.980;2023-02-15T10:45:43;8.57;;;7.67;;
29200;SDS011;16244;51.956;12.980;2023-02-15T10:48:30;10.73;;;8.40;;
29200;SDS011;16244;51.956;12.980;2023-02-15T10:51:10;11.27;;;9.30;;
29200;SDS011;16244;51.956;12.980;2023-02-15T10:53:54;13.60;;;9.53;;
29200;SDS011;16244;51.956;12.980;2023-02-15T10:56:35;10.50;;;9.43;;
29200;SDS011;16244;51.956;12.980;2023-02-15T10:59:12;19.50;;;13.70;;
29200;SDS011;16244;51.956;12.980;2023-02-15T11:01:58;14.43;;;10.70;;
29200;SDS011;16244;51.956;12.980;2023-02-15T11:04:33;14.63;;;10.60;;
29200;SDS011;16244;51.956;12.980;2023-02-15T11:07:14;14.77;;;11.00;;
29200;SDS011;16244;51.956;12.980;2023-02-15T11:09:46;12.53;;;10.40;;
29200;SDS011;16244;51.956;12.980;2023-02-15T11:12:16;16.00;;;11.17;;
29200;SDS011;16244;51.956;12.980;2023-02-15T11:14:48;15.40;;;10.20;;
29200;SDS011;16244;51.956;12.980;2023-02-15T11:17:21;15.47;;;11.57;;
29200;SDS011;16244;51.956;12.980;2023-02-15T11:19:55;15.30;;;11.63;;
29200;SDS011;16244;51.956;12.980;2023-02-15T11:22:30;16.77;;;11.63;;
29200;SDS011;16244;51.956;12.980;2023-02-15T11:25:00;15.57;;;11.30;;
29200;SDS011;16244;51.956;12.980;2023-02-15T11:27:32;18.23;;;13.00;;
29200;SDS011;16244;51.956;12.980;2023-02-15T11:30:00;17.03;;;13.33;;
29200;SDS011;16244;51.956;12.980;2023-02-15T11:32:32;18.23;;;12.27;;
29200;SDS011;16244;51.956;12.980;2023-02-15T11:35:02;18.60;;;13.23;;
29200;SDS011;16244;51.956;12.980;2023-02-15T11:37:39;18.90;;;12.70;;
29200;SDS011;16244;51.956;12.980;2023-02-15T11:40:15;17.90;;;13.07;;
29200;SDS011;16244;51.956;12.980;2023-02-15T11:42:47;16.23;;;11.87;;
29200;SDS011;16244;51.956;12.980;2023-02-15T11:45:19;20.97;;;12.77;;
29200;SDS011;16244;51.956;12.980;2023-02-15T11:47:52;14.60;;;11.50;;
29200;SDS011;16244;51.956;12.980;2023-02-15T11:50:21;14.20;;;11.80;;
29200;SDS011;16244;51.956;12.980;2023-02-15T11:52:52;20.80;;;13.00;;
29200;SDS011;16244;51.956;12.980;2023-02-15T11:55:24;18.50;;;12.90;;
29200;SDS011;16244;51.956;12.980;2023-02-15T11:57:55;16.60;;;12.70;;
29200;SDS011;16244;51.956;12.980;2023-02-15T12:00:31;17.40;;;13.00;;
29200;SDS011;16244;51.956;12.980;2023-02-15T12:03:03;15.53;;;11.73;;
29200;SDS011;16244;51.956;12.980;2023-02-15T12:05:39;18.30;;;12.67;;
29200;SDS011;16244;51.956;12.980;2023-02-15T12:08:17;21.83;;;12.27;;
29200;SDS011;16244;51.956;12.980;2023-02-15T12:10:52;17.57;;;12.67;;
29200;SDS011;16244;51.956;12.980;2023-02-15T12:13:25;19.97;;;13.80;;
29200;SDS011;16244;51.956;12.980;2023-02-15T12:15:53;15.87;;;11.30;;
29200;SDS011;16244;51.956;12.980;2023-02-15T12:18:31;16.07;;;12.27;;
29200;SDS011;16244;51.956;12.980;2023-02-15T12:21:02;16.07;;;12.10;;
29200;SDS011;16244;51.956;12.980;2023-02-15T12:23:35;16.23;;;12.27;;
29200;SDS011;16244;51.956;12.980;2023-02-15T12:26:10;16.47;;;12.93;;
29200;SDS011;16244;51.956;12.980;2023-02-15T12:28:38;19.70;;;12.90;;
29200;SDS011;16244;51.956;12.980;2023-02-15T12:31:10;18.93;;;12.80;;
29200;SDS011;16244;51.956;12.980;2023-02-15T12:33:47;22.80;;;13.17;;
29200;SDS011;16244;51.956;12.980;2023-02-15T12:36:18;17.73;;;12.93;;
29200;SDS011;16244;51.956;12.980;2023-02-15T12:39:09;15.97;;;11.00;;
29200;SDS011;16244;51.956;12.980;2023-02-15T12:41:46;17.30;;;11.40;;
29200;SDS011;16244;51.956;12.980;2023-02-15T12:44:23;16.67;;;10.90;;
29200;SDS011;16244;51.956;12.980;2023-02-15T12:46:55;12.50;;;10.37;;
29200;SDS011;16244;51.956;12.980;2023-02-15T12:49:25;22.80;;;16.40;;
29200;SDS011;16244;51.956;12.980;2023-02-15T12:51:53;20.10;;;11.53;;
29200;SDS011;16244;51.956;12.980;2023-02-15T12:54:27;19.63;;;14.97;;
29200;SDS011;16244;51.956;12.980;2023-02-15T12:56:57;22.67;;;14.33;;
29200;SDS011;16244;51.956;12.980;2023-02-15T12:59:25;19.63;;;13.20;;
29200;SDS011;16244;51.956;12.980;2023-02-15T13:01:52;23.73;;;16.33;;
29200;SDS011;16244;51.956;12.980;2023-02-15T13:04:22;33.77;;;20.77;;
29200;SDS011;16244;51.956;12.980;2023-02-15T13:06:52;24.40;;;16.30;;
29200;SDS011;16244;51.956;12.980;2023-02-15T13:09:25;20.50;;;13.63;;
29200;SDS011;16244;51.956;12.980;2023-02-15T13:12:09;27.50;;;17.60;;
29200;SDS011;16244;51.956;12.980;2023-02-15T13:14:43;16.53;;;11.07;;
29200;SDS011;16244;51.956;12.980;2023-02-15T13:17:12;19.07;;;12.80;;
29200;SDS011;16244;51.956;12.980;2023-02-15T13:19:44;25.90;;;17.43;;
29200;SDS011;16244;51.956;12.980;2023-02-15T13:22:15;23.30;;;15.53;;
29200;SDS011;16244;51.956;12.980;2023-02-15T13:24:48;12.37;;;10.00;;
29200;SDS011;16244;51.956;12.980;2023-02-15T13:27:19;14.03;;;11.70;;
29200;SDS011;16244;51.956;12.980;2023-02-15T13:29:49;20.27;;;12.90;;
29200;SDS011;16244;51.956;12.980;2023-02-15T13:32:26;20.70;;;13.87;;
29200;SDS011;16244;51.956;12.980;2023-02-15T13:34:57;18.10;;;14.50;;
29200;SDS011;16244;51.956;12.980;2023-02-15T13:37:37;21.10;;;14.93;;
29200;SDS011;16244;51.956;12.980;2023-02-15T13:40:22;18.40;;;12.87;;
29200;SDS011;16244;51.956;12.980;2023-02-15T13:42:55;17.40;;;11.80;;
29200;SDS011;16244;51.956;12.980;2023-02-15T13:45:29;23.27;;;9.63;;
29200;SDS011;16244;51.956;12.980;2023-02-15T13:48:06;14.70;;;8.87;;
29200;SDS011;16244;51.956;12.980;2023-02-15T13:50:47;11.40;;;8.70;;
29200;SDS011;16244;51.956;12.980;2023-02-15T13:53:24;13.13;;;9.80;;
29200;SDS011;16244;51.956;12.980;2023-02-15T13:56:10;19.97;;;9.53;;
29200;SDS011;16244;51.956;12.980;2023-02-15T13:58:58;8.93;;;7.90;;
29200;SDS011;16244;51.956;12.980;2023-02-15T14:01:37;11.50;;;9.07;;
29200;SDS011;16244;51.956;12.980;2023-02-15T14:04:13;10.43;;;7.83;;
29200;SDS011;16244;51.956;12.980;2023-02-15T14:06:51;7.90;;;7.17;;
29200;SDS011;16244;51.956;12.980;2023-02-15T14:09:36;10.30;;;7.77;;
29200;SDS011;16244;51.956;12.980;2023-02-15T14:12:16;9.07;;;7.57;;
29200;SDS011;16244;51.956;12.980;2023-02-15T14:15:08;13.83;;;11.40;;
29200;SDS011;16244;51.956;12.980;2023-02-15T14:17:48;10.53;;;9.50;;
29200;SDS011;16244;51.956;12.980;2023-02-15T14:20:24;8.50;;;7.60;;
29200;SDS011;16244;51.956;12.980;2023-02-15T14:22:59;8.20;;;7.50;;
29200;SDS011;16244;51.956;12.980;2023-02-15T14:25:38;11.17;;;7.47;;
29200;SDS011;16244;51.956;12.980;2023-02-15T14:28:11;7.60;;;6.77;;
29200;SDS011;16244;51.956;12.980;2023-02-15T14:30:44;7.73;;;6.53;;
29200;SDS011;16244;51.956;12.980;2023-02-15T14:33:23;7.63;;;6.23;;
29200;SDS011;16244;51.956;12.980;2023-02-15T14:35:58;7.37;;;6.20;;
29200;SDS011;16244;51.956;12.980;2023-02-15T14:38:30;7.50;;;6.90;;
29200;SDS011;16244;51.956;12.980;2023-02-15T14:41:07;10.37;;;6.40;;
29200;SDS011;16244;51.956;12.980;2023-02-15T14:43:49;6.40;;;5.90;;